createdAt,value
2022-08-11T00:01:21.150Z,24.60
2022-08-11T00:04:07.265Z,24.70
2022-08-11T00:06:54.515Z,24.10
2022-08-11T00:09:40.897Z,24.40
2022-08-11T00:12:27.886Z,24.50
2022-08-11T00:15:13.749Z,24.20
2022-08-11T00:18:00.195Z,24.30
2022-08-11T00:20:47.281Z,24.10
2022-08-11T00:29:10.481Z,24.00
2022-08-11T00:31:58.313Z,23.90
2022-08-11T00:34:46.553Z,23.80
2022-08-11T00:37:32.861Z,23.60
2022-08-11T00:40:44.182Z,23.60
2022-08-11T00:46:26.458Z,23.50
2022-08-11T00:49:24.524Z,22.90
2022-08-11T00:52:22.216Z,23.60
2022-08-11T00:55:31.148Z,23.70
2022-08-11T00:58:22.911Z,23.30
2022-08-11T01:01:18.543Z,23.80
2022-08-11T01:04:35.891Z,23.50
2022-08-11T01:08:00.684Z,23.60
2022-08-11T01:11:02.857Z,23.60
2022-08-11T01:13:54.237Z,23.70
2022-08-11T01:17:05.112Z,23.50
2022-08-11T01:20:45.325Z,23.40
2022-08-11T01:23:30.873Z,23.30
2022-08-11T01:26:22.900Z,23.30
2022-08-11T01:29:49.496Z,22.50
2022-08-11T01:33:11.625Z,23.10
2022-08-11T01:36:03.102Z,23.10
2022-08-11T01:39:31.409Z,23.00
2022-08-11T01:43:13.373Z,22.80
2022-08-11T01:46:06.299Z,22.80
2022-08-11T01:50:06.425Z,22.90
2022-08-11T01:52:40.089Z,23.00
2022-08-11T01:55:55.365Z,23.00
2022-08-11T01:58:49.087Z,23.00
2022-08-11T02:01:38.057Z,23.10
2022-08-11T02:04:50.925Z,23.00
2022-08-11T02:07:52.815Z,23.10
2022-08-11T02:11:14.079Z,23.00
2022-08-11T02:14:36.777Z,23.00
2022-08-11T02:18:09.812Z,22.90
2022-08-11T02:21:18.278Z,22.80
2022-08-11T02:24:16.249Z,22.90
2022-08-11T02:27:14.263Z,22.80
2022-08-11T02:30:07.543Z,22.70
2022-08-11T02:33:25.703Z,22.60
2022-08-11T02:36:38.881Z,22.60
2022-08-11T02:39:39.712Z,22.40
2022-08-11T02:42:36.117Z,22.20
2022-08-11T02:45:54.808Z,22.20
2022-08-11T02:49:22.302Z,22.00
2022-08-11T02:52:24.893Z,22.00
2022-08-11T02:55:45.941Z,22.30
2022-08-11T02:59:19.207Z,22.20
2022-08-11T03:02:12.534Z,22.30
2022-08-11T03:04:58.603Z,22.20
2022-08-11T03:08:06.358Z,22.20
2022-08-11T03:11:38.274Z,22.20
2022-08-11T03:14:54.673Z,22.20
2022-08-11T03:18:11.325Z,22.10
2022-08-11T03:21:15.802Z,22.10
2022-08-11T03:24:31.611Z,22.20
2022-08-11T03:27:20.415Z,22.20
2022-08-11T03:30:06.202Z,22.30
2022-08-11T03:33:39.730Z,22.30
2022-08-11T03:36:28.724Z,22.20
2022-08-11T03:39:25.871Z,22.10
2022-08-11T03:42:40.040Z,22.40
2022-08-11T03:45:37.364Z,21.90
2022-08-11T03:48:28.859Z,21.60
2022-08-11T03:51:27.530Z,21.60
2022-08-11T03:55:08.794Z,21.70
2022-08-11T03:58:22.369Z,21.80
2022-08-11T04:04:15.849Z,21.40
2022-08-11T04:07:20.241Z,21.80
2022-08-11T04:10:14.918Z,21.90
2022-08-11T04:13:28.768Z,22.00
2022-08-11T04:16:33.388Z,22.00
2022-08-11T04:19:38.077Z,22.10
2022-08-11T04:23:03.511Z,22.00
2022-08-11T04:26:23.380Z,22.00
2022-08-11T04:29:35.895Z,21.90
2022-08-11T04:35:24.150Z,21.80
2022-08-11T04:38:35.757Z,21.80
2022-08-11T04:41:33.334Z,21.80
2022-08-11T04:44:50.882Z,21.90
2022-08-11T04:48:24.255Z,22.00
2022-08-11T04:52:02.858Z,22.10
2022-08-11T04:55:46.937Z,22.20
2022-08-11T04:59:22.063Z,22.20
2022-08-11T05:02:41.386Z,22.30
2022-08-11T05:06:00.595Z,22.20
2022-08-11T05:09:23.965Z,22.20
2022-08-11T05:12:20.220Z,22.30
2022-08-11T05:15:51.420Z,22.20
2022-08-11T05:19:07.686Z,22.30
2022-08-11T05:22:16.621Z,22.40
2022-08-11T05:26:43.466Z,22.60
2022-08-11T05:29:19.550Z,22.80
2022-08-11T05:32:29.412Z,23.10
2022-08-11T05:36:01.779Z,22.80
2022-08-11T05:38:45.700Z,22.90
2022-08-11T05:41:50.730Z,23.10
2022-08-11T05:44:57.320Z,22.50
2022-08-11T05:48:02.340Z,23.30
2022-08-11T05:51:17.377Z,23.30
2022-08-11T05:54:28.525Z,24.20
2022-08-11T05:57:39.551Z,24.30
2022-08-11T06:00:41.026Z,24.60
2022-08-11T06:03:29.824Z,24.80
2022-08-11T06:11:48.601Z,24.40
2022-08-11T06:14:41.221Z,24.40
2022-08-11T06:17:38.690Z,24.50
2022-08-11T06:23:15.004Z,25.30
2022-08-11T06:26:01.620Z,25.20
2022-08-11T06:28:48.257Z,25.20
2022-08-11T06:31:34.978Z,25.50
2022-08-11T06:34:49.034Z,25.40
2022-08-11T06:37:59.165Z,25.80
2022-08-11T06:41:12.982Z,26.10
2022-08-11T06:44:03.264Z,26.40
2022-08-11T06:46:53.226Z,26.60
2022-08-11T06:50:03.075Z,26.90
2022-08-11T06:52:49.105Z,27.20
2022-08-11T06:55:58.816Z,27.50
2022-08-11T06:59:07.464Z,28.20
2022-08-11T07:02:14.917Z,28.00
2022-08-11T07:05:14.627Z,28.60
2022-08-11T07:11:48.393Z,28.70
2022-08-11T07:14:59.936Z,28.60
2022-08-11T07:18:10.970Z,28.60
2022-08-11T07:22:00.528Z,29.30
2022-08-11T07:25:02.921Z,29.30
2022-08-11T07:28:29.621Z,29.20
2022-08-11T07:31:24.301Z,28.30
2022-08-11T07:34:21.941Z,28.20
2022-08-11T07:37:17.829Z,28.60
2022-08-11T07:40:04.902Z,28.90
2022-08-11T07:42:52.385Z,29.30
2022-08-11T07:46:04.447Z,27.70
2022-08-11T07:49:09.334Z,29.50
2022-08-11T07:52:14.588Z,28.80
2022-08-11T07:55:15.200Z,30.90
2022-08-11T07:58:21.972Z,29.60
2022-08-11T08:01:31.335Z,30.10
2022-08-11T08:04:37.479Z,30.50
2022-08-11T08:07:42.730Z,30.40
2022-08-11T08:10:48.033Z,30.20
2022-08-11T08:13:54.114Z,30.20
2022-08-11T08:19:48.240Z,30.70
2022-08-11T08:22:48.391Z,30.60
2022-08-11T08:25:41.359Z,30.20
2022-08-11T08:28:32.333Z,31.30
2022-08-11T08:34:04.614Z,31.50
2022-08-11T08:36:51.685Z,31.40
2022-08-11T08:42:25.645Z,31.30
2022-08-11T08:45:16.298Z,31.30
2022-08-11T08:48:09.210Z,32.00
2022-08-11T08:51:22.048Z,32.00
2022-08-11T08:54:30.436Z,32.00
2022-08-11T08:57:19.997Z,31.90
2022-08-11T09:00:07.552Z,32.10
2022-08-11T09:05:41.763Z,31.90
2022-08-11T09:08:30.663Z,32.80
2022-08-11T09:11:34.973Z,31.50
2022-08-11T09:14:52.266Z,32.20
2022-08-11T09:17:46.312Z,31.30
2022-08-11T09:20:38.563Z,30.60
2022-08-11T09:27:02.795Z,30.70
2022-08-11T09:29:49.946Z,31.30
2022-08-11T09:32:36.475Z,30.60
2022-08-11T09:35:22.661Z,30.40
2022-08-11T09:38:30.340Z,30.30
2022-08-11T09:44:21.264Z,30.70
2022-08-11T09:47:15.467Z,30.10
2022-08-11T09:50:03.567Z,30.20
2022-08-11T09:53:16.936Z,30.50
2022-08-11T09:55:57.960Z,30.20
2022-08-11T09:58:44.897Z,30.60
2022-08-11T10:01:41.687Z,31.70
2022-08-11T10:04:47.104Z,31.20
2022-08-11T10:10:22.849Z,30.80
2022-08-11T10:14:31.615Z,30.50
2022-08-11T10:16:28.736Z,30.60
2022-08-11T10:19:19.376Z,31.20
2022-08-11T10:22:27.638Z,30.40
2022-08-11T10:25:33.877Z,30.70
2022-08-11T10:28:33.689Z,30.80
2022-08-11T10:34:51.243Z,30.20
2022-08-11T10:38:08.252Z,30.70
2022-08-11T10:41:13.330Z,30.90
2022-08-11T10:44:03.232Z,30.00
2022-08-11T10:47:08.954Z,30.90
2022-08-11T10:50:19.484Z,31.40
2022-08-11T10:53:26.802Z,30.80
2022-08-11T11:02:06.526Z,30.10
2022-08-11T11:05:13.759Z,30.60
2022-08-11T11:08:33.066Z,30.20
2022-08-11T11:11:20.818Z,30.80
2022-08-11T11:17:14.230Z,30.60
2022-08-11T11:20:03.538Z,30.50
2022-08-11T11:22:53.760Z,30.90
2022-08-11T11:26:10.360Z,31.10
2022-08-11T11:29:33.777Z,30.80
2022-08-11T11:33:01.895Z,31.00
2022-08-11T11:36:20.672Z,30.60
2022-08-11T11:41:58.004Z,30.50
2022-08-11T11:44:45.545Z,30.20
2022-08-11T11:47:32.972Z,31.60
2022-08-11T11:50:36.627Z,31.20
2022-08-11T11:53:23.278Z,31.70
2022-08-11T11:56:09.919Z,31.40
2022-08-11T12:02:01.653Z,31.20
2022-08-11T12:04:58.174Z,32.00
2022-08-11T12:08:06.509Z,31.10
2022-08-11T12:11:37.821Z,31.10
2022-08-11T12:14:25.723Z,31.10
2022-08-11T12:17:11.605Z,31.50
2022-08-11T12:19:58.133Z,30.90
2022-08-11T12:23:02.955Z,31.00
2022-08-11T12:29:13.773Z,31.10
2022-08-11T12:32:00.573Z,31.20
2022-08-11T12:34:46.477Z,31.10
2022-08-11T12:37:49.492Z,30.30
2022-08-11T12:47:13.278Z,31.90
2022-08-11T12:50:31.512Z,31.10
2022-08-11T12:53:19.021Z,31.50
2022-08-11T12:56:25.602Z,30.80
2022-08-11T13:02:40.045Z,31.30
2022-08-11T13:05:33.178Z,32.30
2022-08-11T13:08:35.513Z,32.20
2022-08-11T13:14:44.256Z,31.40
2022-08-11T13:17:40.246Z,32.00
2022-08-11T13:20:30.729Z,31.40
2022-08-11T13:23:16.698Z,31.60
2022-08-11T13:26:03.395Z,31.20
2022-08-11T13:31:35.206Z,31.30
2022-08-11T13:34:22.953Z,31.60
2022-08-11T13:37:13.102Z,31.70
2022-08-11T13:45:33.117Z,31.80
2022-08-11T13:48:19.090Z,31.50
2022-08-11T13:54:30.101Z,31.60
2022-08-11T13:58:08.080Z,31.70
2022-08-11T14:03:15.072Z,30.70
2022-08-11T14:06:03.528Z,31.20
2022-08-11T14:08:51.774Z,30.80
2022-08-11T14:12:22.193Z,30.90
2022-08-11T14:15:14.525Z,31.50
2022-08-11T14:18:20.327Z,30.90
2022-08-11T14:21:24.927Z,30.70
2022-08-11T14:24:11.695Z,30.40
2022-08-11T14:26:59.678Z,31.50
2022-08-11T14:29:48.861Z,31.30
2022-08-11T14:32:35.167Z,31.80
2022-08-11T14:35:39.049Z,31.00
2022-08-11T14:38:30.995Z,30.90
2022-08-11T14:41:36.465Z,31.10
2022-08-11T14:47:29.259Z,31.40
2022-08-11T14:50:18.821Z,31.20
2022-08-11T14:53:11.811Z,31.90
2022-08-11T14:56:22.165Z,31.30
2022-08-11T14:59:08.296Z,31.20
2022-08-11T15:05:00.596Z,31.00
2022-08-11T15:07:46.641Z,31.00
2022-08-11T15:10:33.051Z,30.70
2022-08-11T15:13:19.399Z,31.80
2022-08-11T15:16:25.004Z,31.20
2022-08-11T15:19:11.406Z,31.00
2022-08-11T15:28:12.434Z,31.40
2022-08-11T15:31:17.845Z,31.40
2022-08-11T15:34:24.907Z,31.30
2022-08-11T15:37:27.077Z,31.70
2022-08-11T15:40:48.223Z,31.40
2022-08-11T15:44:12.974Z,31.30
2022-08-11T15:47:02.690Z,31.30
2022-08-11T15:50:10.674Z,31.60
2022-08-11T15:53:23.456Z,31.10
2022-08-11T15:56:11.296Z,31.10
2022-08-11T15:59:41.995Z,31.10
2022-08-11T16:02:25.445Z,31.10
2022-08-11T16:05:45.317Z,31.00
2022-08-11T16:08:33.216Z,31.00
2022-08-11T16:11:21.419Z,31.10
2022-08-11T16:14:29.552Z,31.10
2022-08-11T16:17:18.558Z,31.70
2022-08-11T16:20:05.576Z,30.90
2022-08-11T16:23:02.187Z,30.80
2022-08-11T16:27:05.055Z,30.80
2022-08-11T16:28:59.428Z,30.80
2022-08-11T16:32:06.560Z,29.60
2022-08-11T16:35:47.536Z,30.80
2022-08-11T16:38:36.369Z,31.40
2022-08-11T16:41:44.588Z,31.00
2022-08-11T16:44:49.914Z,30.80
2022-08-11T16:48:01.902Z,31.00
2022-08-11T16:50:42.726Z,30.70
2022-08-11T16:54:00.246Z,30.90
2022-08-11T16:59:32.499Z,30.60
2022-08-11T17:02:58.737Z,30.40
2022-08-11T17:06:12.096Z,30.50
2022-08-11T17:09:20.635Z,30.50
2022-08-11T17:12:27.133Z,32.00
2022-08-11T17:15:36.751Z,30.20
2022-08-11T17:18:43.377Z,30.30
2022-08-11T17:21:57.645Z,30.20
2022-08-11T17:24:46.162Z,30.30
2022-08-11T17:27:33.085Z,30.20
2022-08-11T17:30:19.586Z,29.10
2022-08-11T17:33:23.865Z,29.70
2022-08-11T17:36:11.783Z,30.50
2022-08-11T17:38:57.679Z,30.30
2022-08-11T17:42:03.308Z,29.80
2022-08-11T17:45:07.705Z,29.90
2022-08-11T17:48:12.991Z,29.30
2022-08-11T17:51:03.061Z,29.60
2022-08-11T17:54:23.828Z,29.30
2022-08-11T17:57:31.989Z,29.50
2022-08-11T18:00:18.089Z,29.40
2022-08-11T18:03:25.045Z,28.50
2022-08-11T18:06:13.301Z,29.30
2022-08-11T18:09:19.903Z,29.00
2022-08-11T18:12:26.285Z,29.30
2022-08-11T18:15:32.114Z,29.80
2022-08-11T18:24:48.853Z,29.00
2022-08-11T18:27:56.346Z,28.90
2022-08-11T18:31:05.838Z,28.80
2022-08-11T18:34:14.485Z,28.90
2022-08-11T18:37:24.786Z,28.00
2022-08-11T18:40:37.931Z,28.80
2022-08-11T18:43:44.850Z,28.70
2022-08-11T18:46:54.737Z,28.50
2022-08-11T18:50:05.431Z,27.70
2022-08-11T18:53:12.982Z,28.20
2022-08-11T18:56:18.321Z,28.30
2022-08-11T18:59:26.409Z,28.70
2022-08-11T19:02:48.580Z,28.70
2022-08-11T19:06:06.127Z,28.40
2022-08-11T19:09:26.327Z,28.10
2022-08-11T19:12:31.601Z,27.00
2022-08-11T19:15:37.208Z,27.90
2022-08-11T19:18:43.375Z,27.80
2022-08-11T19:21:48.704Z,27.70
2022-08-11T19:24:54.693Z,28.20
2022-08-11T19:28:01.817Z,27.60
2022-08-11T19:31:06.681Z,27.60
2022-08-11T19:34:11.065Z,27.10
2022-08-11T19:37:15.327Z,27.10
2022-08-11T19:40:27.154Z,27.50
2022-08-11T19:43:31.697Z,27.40
2022-08-11T19:46:40.995Z,27.00
2022-08-11T19:49:45.997Z,27.10
2022-08-11T19:52:51.027Z,27.30
2022-08-11T19:55:56.606Z,27.30
2022-08-11T19:59:02.118Z,27.10
2022-08-11T20:05:19.298Z,27.00
2022-08-11T20:08:26.042Z,26.90
2022-08-11T20:11:33.688Z,26.80
2022-08-11T20:14:40.126Z,26.80
2022-08-11T20:17:49.042Z,26.80
2022-08-11T20:20:54.115Z,26.70
2022-08-11T20:24:02.091Z,26.80
2022-08-11T20:27:07.721Z,26.70
2022-08-11T20:30:29.002Z,27.00
2022-08-11T20:33:34.030Z,26.70
2022-08-11T20:36:39.087Z,26.60
2022-08-11T20:39:43.984Z,26.70
2022-08-11T20:42:50.864Z,26.60
2022-08-11T20:45:57.200Z,26.60
2022-08-11T20:49:06.145Z,26.60
2022-08-11T20:55:26.085Z,26.50
2022-08-11T20:59:13.798Z,26.60
2022-08-11T21:02:14.390Z,26.60
2022-08-11T21:05:19.941Z,26.30
2022-08-11T21:08:51.053Z,26.40
2022-08-11T21:11:57.082Z,26.10
2022-08-11T21:15:04.850Z,26.50
2022-08-11T21:18:12.107Z,26.40
2022-08-11T21:21:45.437Z,26.40
2022-08-11T21:24:51.896Z,26.50
2022-08-11T21:27:59.099Z,26.30
2022-08-11T21:31:04.793Z,25.80
2022-08-11T21:34:11.425Z,26.10
2022-08-11T21:37:18.816Z,26.20
2022-08-11T21:40:25.527Z,26.20
2022-08-11T21:43:32.241Z,26.10
2022-08-11T21:46:42.509Z,26.10
2022-08-11T21:49:48.419Z,25.90
2022-08-11T21:52:56.071Z,26.40
2022-08-11T21:56:01.042Z,25.80
2022-08-11T21:59:08.427Z,25.90
2022-08-11T22:02:13.148Z,26.10
2022-08-11T22:08:22.788Z,26.10
2022-08-11T22:11:31.841Z,25.90
2022-08-11T22:20:47.166Z,25.70
2022-08-11T22:23:56.599Z,25.80
2022-08-11T22:27:01.652Z,25.50
2022-08-11T22:33:11.983Z,25.70
2022-08-11T22:39:26.606Z,25.70
2022-08-11T22:42:33.650Z,25.30
2022-08-11T22:45:39.221Z,25.70
2022-08-11T22:48:46.618Z,25.70
2022-08-11T22:51:53.280Z,25.70
2022-08-11T22:54:58.273Z,25.70
2022-08-11T22:58:02.483Z,25.60
2022-08-11T23:01:08.217Z,25.60
2022-08-11T23:04:15.197Z,25.60
2022-08-11T23:07:51.431Z,25.70
2022-08-11T23:10:47.039Z,25.60
2022-08-11T23:13:52.196Z,25.70
2022-08-11T23:20:21.723Z,25.20
2022-08-11T23:23:28.481Z,25.20
2022-08-11T23:26:34.797Z,25.10
2022-08-11T23:29:39.598Z,24.80
2022-08-11T23:32:45.848Z,25.00
2022-08-11T23:35:55.533Z,25.00
2022-08-11T23:42:08.454Z,25.00
2022-08-11T23:48:17.755Z,25.00
2022-08-11T23:51:22.094Z,24.80
2022-08-11T23:54:26.699Z,24.70
2022-08-11T23:57:32.351Z,24.70
